Time;durP1;ratioP1;P1;durP2;ratioP2;P2;SDS_P1;SDS_P2;PMS_P1;PMS_P2;Temp;Humidity;BMP_temperature;BMP_pressure;BME280_temperature;BME280_humidity;BME280_pressure;Samples;Min_cycle;Max_cycle;Signal;HPM_P1;HPM_P2
2023/10/05 00:04:29;;;;;;;5.45;2.22;;;14.70;76.80;;;;;;5072911;28;20021;-66
2023/10/05 00:06:56;;;;;;;4.80;2.30;;;14.70;77.20;;;;;;5073340;28;20028;-66
2023/10/05 00:09:24;;;;;;;3.20;2.08;;;14.60;77.60;;;;;;5072871;28;20016;-66
2023/10/05 00:11:56;;;;;;;3.88;2.22;;;14.60;78.00;;;;;;5073167;28;20031;-66
2023/10/05 00:14:24;;;;;;;7.25;2.50;;;14.60;78.50;;;;;;5072836;28;20025;-67
2023/10/05 00:16:49;;;;;;;4.63;2.50;;;14.50;78.80;;;;;;5073140;28;20020;-67
2023/10/05 00:19:17;;;;;;;7.35;2.35;;;14.60;78.50;;;;;;5075637;28;20024;-66
2023/10/05 00:21:51;;;;;;;4.00;2.25;;;14.60;78.60;;;;;;5072690;28;20021;-66
2023/10/05 00:24:37;;;;;;;3.78;2.33;;;14.50;77.90;;;;;;5092673;28;20074;-66
2023/10/05 00:27:09;;;;;;;3.60;1.88;;;14.60;77.70;;;;;;5093375;28;20039;-66
2023/10/05 00:29:41;;;;;;;4.13;1.63;;;14.50;78.00;;;;;;5092924;28;20378;-66
2023/10/05 00:32:13;;;;;;;4.38;2.17;;;14.50;78.10;;;;;;5093130;28;20024;-66
2023/10/05 00:34:40;;;;;;;4.45;2.17;;;14.50;77.40;;;;;;5092723;28;20035;-65
2023/10/05 00:37:06;;;;;;;8.10;2.15;;;14.50;77.10;;;;;;5092693;28;20460;-66
2023/10/05 00:39:32;;;;;;;3.80;2.30;;;14.50;76.80;;;;;;5092697;28;20028;-65
2023/10/05 00:44:31;;;;;;;5.20;2.28;;;14.50;77.20;;;;;;5092699;28;20020;-65
2023/10/05 00:47:00;;;;;;;5.03;2.20;;;14.50;76.80;;;;;;5092846;28;20070;-66
2023/10/05 00:49:29;;;;;;;5.32;2.20;;;14.50;76.90;;;;;;5092516;28;20020;-66
2023/10/05 00:52:15;;;;;;;3.38;2.10;;;14.50;76.90;;;;;;5092666;28;20477;-65
2023/10/05 00:54:45;;;;;;;5.70;2.35;;;14.50;77.40;;;;;;5092420;28;20028;-66
2023/10/05 00:57:14;;;;;;;5.63;2.40;;;14.50;76.80;;;;;;5092562;28;20110;-65
2023/10/05 00:59:46;;;;;;;3.47;2.00;;;14.40;77.00;;;;;;5095071;28;20410;-66
2023/10/05 01:02:16;;;;;;;3.53;2.17;;;14.50;77.00;;;;;;5097425;28;20023;-65
2023/10/05 01:07:19;;;;;;;4.72;2.15;;;14.40;76.60;;;;;;5096881;28;20028;-65
2023/10/05 01:15:06;;;;;;;3.72;2.25;;;14.30;76.80;;;;;;5096830;28;20035;-65
2023/10/05 01:17:34;;;;;;;6.13;2.15;;;14.30;76.80;;;;;;5096581;28;20456;-65
2023/10/05 01:20:11;;;;;;;3.88;2.05;;;14.20;77.10;;;;;;5095450;28;20039;-65
2023/10/05 01:22:40;;;;;;;3.67;1.90;;;14.20;77.30;;;;;;5096240;28;20027;-65
2023/10/05 01:25:08;;;;;;;5.93;1.70;;;14.20;76.60;;;;;;5097311;28;20020;-65
2023/10/05 01:27:36;;;;;;;3.08;2.00;;;14.10;76.50;;;;;;5096415;28;20042;-66
2023/10/05 01:30:03;;;;;;;4.35;2.00;;;13.90;77.10;;;;;;5096628;28;20369;-66
2023/10/05 01:32:29;;;;;;;2.63;1.60;;;13.80;78.10;;;;;;5096180;28;20019;-67
2023/10/05 01:34:54;;;;;;;3.65;2.10;;;13.70;78.90;;;;;;5096746;28;20016;-66
2023/10/05 01:37:26;;;;;;;7.03;2.08;;;13.70;79.30;;;;;;5096411;28;20415;-67
2023/10/05 01:39:52;;;;;;;5.35;1.85;;;13.60;79.40;;;;;;5096533;28;20024;-67
2023/10/05 01:42:21;;;;;;;3.05;1.88;;;13.60;80.30;;;;;;5096185;28;20035;-66
2023/10/05 01:44:47;;;;;;;4.10;2.15;;;13.60;80.60;;;;;;5094551;28;20371;-67
2023/10/05 01:47:17;;;;;;;5.85;2.15;;;13.60;80.50;;;;;;5096121;28;20028;-65
2023/10/05 01:49:45;;;;;;;5.85;2.50;;;13.60;80.40;;;;;;5095809;28;20024;-67
2023/10/05 01:52:16;;;;;;;3.00;1.80;;;13.70;80.30;;;;;;5096065;28;20475;-67
2023/10/05 01:54:43;;;;;;;3.38;1.90;;;13.70;80.20;;;;;;5095762;28;20359;-67
2023/10/05 01:57:09;;;;;;;5.47;2.00;;;13.60;80.90;;;;;;5095828;28;20113;-66
2023/10/05 01:59:36;;;;;;;4.40;2.10;;;13.60;80.90;;;;;;5095625;28;20506;-67
2023/10/05 02:02:04;;;;;;;3.33;1.73;;;13.60;81.00;;;;;;5094135;28;20333;-67
2023/10/05 02:04:31;;;;;;;5.53;2.10;;;13.60;81.40;;;;;;5077284;28;20017;-67
2023/10/05 02:06:56;;;;;;;4.95;2.30;;;13.50;81.80;;;;;;5075762;28;20338;-66
2023/10/05 02:09:22;;;;;;;6.50;2.20;;;13.40;82.60;;;;;;5075312;28;20027;-66
2023/10/05 02:11:49;;;;;;;6.15;1.90;;;13.50;81.90;;;;;;5073196;28;20230;-66
2023/10/05 02:14:16;;;;;;;3.85;1.88;;;13.50;81.50;;;;;;5075405;28;20166;-66
2023/10/05 02:16:49;;;;;;;5.63;2.17;;;13.50;81.20;;;;;;5075016;28;20032;-66
2023/10/05 02:19:16;;;;;;;4.70;1.83;;;13.50;81.00;;;;;;5075437;28;20424;-66
2023/10/05 02:21:42;;;;;;;3.13;1.80;;;13.50;81.00;;;;;;5074842;28;20024;-66
2023/10/05 02:24:18;;;;;;;5.07;3.10;;;13.40;81.10;;;;;;5077645;28;20029;-66
2023/10/05 02:27:09;;;;;;;3.25;1.77;;;13.30;80.90;;;;;;5074826;28;20032;-67
2023/10/05 02:29:31;;;;;;;3.88;1.88;;;13.30;81.20;;;;;;5075307;28;20031;-67
2023/10/05 02:34:35;;;;;;;3.10;1.70;;;13.30;81.00;;;;;;5075110;28;20358;-66
2023/10/05 02:37:01;;;;;;;4.22;1.98;;;13.30;81.20;;;;;;5075347;28;20032;-66
2023/10/05 02:39:27;;;;;;;2.55;1.60;;;13.30;81.50;;;;;;5074943;28;20037;-66
2023/10/05 02:41:54;;;;;;;3.10;1.83;;;13.30;81.40;;;;;;5074517;28;20104;-66
2023/10/05 02:46:47;;;;;;;4.15;2.10;;;13.30;81.70;;;;;;5074334;28;20043;-66
2023/10/05 02:49:18;;;;;;;3.70;2.08;;;13.40;81.10;;;;;;5074752;28;20029;-66
2023/10/05 02:51:44;;;;;;;5.95;2.17;;;13.30;81.10;;;;;;5074375;28;20027;-66
2023/10/05 02:54:10;;;;;;;4.07;1.92;;;13.30;81.00;;;;;;5074651;28;20111;-66
2023/10/05 02:56:40;;;;;;;5.30;2.15;;;13.20;81.70;;;;;;5074169;28;20517;-66
2023/10/05 02:59:12;;;;;;;6.03;2.10;;;13.20;81.60;;;;;;5074837;28;20044;-66
2023/10/05 03:01:38;;;;;;;7.03;2.17;;;13.30;81.60;;;;;;5074239;28;20035;-66
2023/10/05 03:06:41;;;;;;;7.80;2.22;;;13.30;81.50;;;;;;5073986;28;20036;-65
2023/10/05 03:09:07;;;;;;;3.28;1.92;;;13.30;81.50;;;;;;5074296;28;20024;-66
2023/10/05 03:11:51;;;;;;;4.75;2.22;;;13.20;81.80;;;;;;5074104;28;20082;-71
2023/10/05 03:14:17;;;;;;;3.15;1.75;;;13.20;81.60;;;;;;5074619;28;20126;-65
2023/10/05 03:16:43;;;;;;;5.30;2.60;;;13.20;81.80;;;;;;5073894;28;20024;-65
2023/10/05 03:19:22;;;;;;;3.30;1.90;;;13.10;82.00;;;;;;5074188;28;20028;-66
2023/10/05 03:21:50;;;;;;;3.55;1.70;;;13.10;82.20;;;;;;5073285;28;20029;-65
2023/10/05 03:24:18;;;;;;;3.70;1.88;;;13.00;82.00;;;;;;5073714;28;20028;-66
2023/10/05 03:26:46;;;;;;;4.65;2.22;;;13.00;82.00;;;;;;5073581;28;20462;-66
2023/10/05 03:29:13;;;;;;;3.47;2.17;;;13.00;82.30;;;;;;5073910;28;20094;-66
2023/10/05 03:34:26;;;;;;;5.78;2.33;;;13.00;82.40;;;;;;5073680;28;20035;-65
2023/10/05 03:36:53;;;;;;;6.53;2.30;;;13.00;82.30;;;;;;5073049;28;20030;-66
2023/10/05 03:39:22;;;;;;;4.47;2.30;;;13.00;82.20;;;;;;5073843;28;20012;-65
2023/10/05 03:41:48;;;;;;;8.38;2.65;;;13.00;82.30;;;;;;5073389;28;20108;-66
2023/10/05 03:44:16;;;;;;;6.13;2.20;;;13.00;82.50;;;;;;5073655;28;20031;-66
2023/10/05 03:46:48;;;;;;;4.38;2.35;;;13.00;82.40;;;;;;5073302;28;20040;-66
2023/10/05 03:49:15;;;;;;;4.70;2.13;;;13.00;82.40;;;;;;5073855;28;20091;-66
2023/10/05 03:51:50;;;;;;;4.65;1.95;;;13.00;82.50;;;;;;5073212;28;20104;-66
2023/10/05 03:54:20;;;;;;;4.63;2.25;;;13.00;82.60;;;;;;5073376;28;20376;-65
2023/10/05 03:56:50;;;;;;;6.35;2.15;;;13.00;82.70;;;;;;5075368;28;20051;-67
2023/10/05 03:59:16;;;;;;;5.95;2.10;;;13.00;82.50;;;;;;5073490;28;20115;-65
2023/10/05 04:01:42;;;;;;;9.35;2.35;;;13.10;82.40;;;;;;5072947;28;20100;-66
2023/10/05 04:04:08;;;;;;;5.55;2.20;;;13.10;82.70;;;;;;5072952;28;20024;-65
2023/10/05 04:06:37;;;;;;;5.50;2.58;;;13.00;82.40;;;;;;5073152;28;20415;-66
2023/10/05 04:09:03;;;;;;;4.57;2.50;;;13.00;82.20;;;;;;5073444;28;20041;-65
2023/10/05 04:11:33;;;;;;;4.30;2.30;;;13.00;82.50;;;;;;5073196;28;20334;-65
2023/10/05 04:14:03;;;;;;;4.32;2.17;;;13.00;82.50;;;;;;5072733;28;20048;-65
2023/10/05 04:16:33;;;;;;;3.60;2.00;;;12.90;82.30;;;;;;5073168;28;20050;-66
2023/10/05 04:19:03;;;;;;;3.95;2.30;;;12.90;82.90;;;;;;5073608;28;20078;-66
2023/10/05 04:21:29;;;;;;;5.72;1.80;;;12.80;83.30;;;;;;5092161;28;20024;-66
2023/10/05 04:23:59;;;;;;;6.60;2.40;;;12.80;83.70;;;;;;5092906;28;20023;-66
2023/10/05 04:26:37;;;;;;;5.20;2.17;;;12.80;83.90;;;;;;5093401;28;20410;-65
2023/10/05 04:29:04;;;;;;;6.85;2.40;;;12.80;83.90;;;;;;5092878;28;20024;-66
2023/10/05 04:31:31;;;;;;;3.58;2.20;;;12.80;84.10;;;;;;5093225;28;20031;-65
2023/10/05 04:33:57;;;;;;;4.32;2.00;;;12.80;84.50;;;;;;5092474;28;20032;-65
2023/10/05 04:36:23;;;;;;;5.90;2.72;;;12.80;84.80;;;;;;5076680;28;20476;-65
2023/10/05 04:38:53;;;;;;;4.53;2.30;;;12.70;84.80;;;;;;5072547;28;20100;-66
2023/10/05 04:41:28;;;;;;;5.47;2.40;;;12.70;85.00;;;;;;5072776;28;20031;-66
2023/10/05 04:43:55;;;;;;;5.97;2.50;;;12.70;85.10;;;;;;5072651;28;20021;-66
2023/10/05 04:46:21;;;;;;;4.38;2.38;;;12.70;85.20;;;;;;5072742;28;20037;-65
2023/10/05 04:48:55;;;;;;;6.72;2.60;;;12.70;85.30;;;;;;5072381;28;20019;-65
2023/10/05 04:51:27;;;;;;;5.20;2.50;;;12.70;85.30;;;;;;5072753;28;20028;-66
2023/10/05 04:53:58;;;;;;;5.05;2.33;;;12.70;85.70;;;;;;5072339;28;20031;-66
2023/10/05 05:04:27;;;;;;;6.53;2.40;;;12.70;87.20;;;;;;5072766;28;20411;-66
2023/10/05 05:07:00;;;;;;;9.60;3.17;;;12.70;87.80;;;;;;5072244;28;20028;-66
2023/10/05 05:09:29;;;;;;;5.18;2.67;;;12.70;88.30;;;;;;5072337;28;20031;-66
2023/10/05 05:12:03;;;;;;;4.85;2.40;;;12.70;88.60;;;;;;5071879;28;20559;-67
2023/10/05 05:14:32;;;;;;;4.35;2.33;;;12.70;88.90;;;;;;5072697;28;20020;-67
2023/10/05 05:17:02;;;;;;;10.30;2.83;;;12.70;89.80;;;;;;5071075;28;20135;-67
2023/10/05 05:19:32;;;;;;;4.40;2.30;;;12.80;90.10;;;;;;5072453;28;20028;-67
2023/10/05 05:22:02;;;;;;;7.03;2.42;;;12.80;89.80;;;;;;5072197;28;20483;-67
2023/10/05 05:24:29;;;;;;;6.57;2.75;;;12.80;89.70;;;;;;5072665;28;20059;-67
2023/10/05 05:27:03;;;;;;;7.80;2.83;;;12.80;89.70;;;;;;5071952;28;20032;-67
2023/10/05 05:29:30;;;;;;;7.97;2.50;;;12.90;90.30;;;;;;5072403;28;20020;-67
2023/10/05 05:31:56;;;;;;;9.38;2.63;;;12.90;90.40;;;;;;5071783;28;20022;-66
2023/10/05 05:34:25;;;;;;;11.30;3.90;;;13.00;90.40;;;;;;5072318;28;20100;-66
2023/10/05 05:36:54;;;;;;;17.80;4.13;;;13.00;90.70;;;;;;5071757;28;20338;-67
2023/10/05 05:39:25;;;;;;;13.70;4.50;;;13.10;90.90;;;;;;5072107;28;20103;-67
2023/10/05 05:41:59;;;;;;;9.35;3.85;;;13.10;90.80;;;;;;5071923;28;20082;-66
2023/10/05 05:44:26;;;;;;;10.05;4.30;;;13.10;90.60;;;;;;5072093;28;20484;-66
2023/10/05 05:46:55;;;;;;;13.10;4.07;;;13.10;90.70;;;;;;5074418;28;20029;-66
2023/10/05 05:49:21;;;;;;;15.68;5.00;;;13.10;90.60;;;;;;5075973;28;20074;-65
2023/10/05 05:51:47;;;;;;;12.93;4.57;;;13.10;91.00;;;;;;5075527;28;20449;-66
2023/10/05 05:54:13;;;;;;;12.35;4.47;;;13.10;90.70;;;;;;5074547;28;20025;-65
2023/10/05 05:56:42;;;;;;;17.55;4.68;;;13.10;90.70;;;;;;5075797;28;20478;-67
2023/10/05 05:59:08;;;;;;;14.30;5.50;;;13.10;90.80;;;;;;5075534;28;20055;-67
2023/10/05 06:01:35;;;;;;;13.50;4.38;;;13.10;91.00;;;;;;5075783;28;20016;-66
2023/10/05 06:04:01;;;;;;;17.40;4.50;;;13.20;91.00;;;;;;5075653;28;20108;-67
2023/10/05 06:06:27;;;;;;;17.55;4.35;;;13.20;90.80;;;;;;5076013;28;20080;-66
2023/10/05 06:08:53;;;;;;;9.98;4.35;;;13.20;90.80;;;;;;5075448;28;20401;-66
2023/10/05 06:11:19;;;;;;;14.07;4.38;;;13.20;90.60;;;;;;5075226;28;20016;-65
2023/10/05 06:13:49;;;;;;;12.88;5.07;;;13.20;90.70;;;;;;5074215;28;20115;-66
2023/10/05 06:16:15;;;;;;;11.13;5.05;;;13.20;90.60;;;;;;5075599;28;20453;-66
2023/10/05 06:18:41;;;;;;;14.32;4.00;;;13.20;90.70;;;;;;5075300;28;20016;-66
2023/10/05 06:21:06;;;;;;;11.55;4.18;;;13.20;90.70;;;;;;5083629;28;20448;-67
2023/10/05 06:23:33;;;;;;;11.93;4.78;;;13.30;90.60;;;;;;5095160;28;20028;-66
2023/10/05 06:25:59;;;;;;;10.90;4.70;;;13.40;90.60;;;;;;5094968;28;20101;-68
2023/10/05 06:28:28;;;;;;;9.68;4.50;;;13.40;90.60;;;;;;5095074;28;20085;-66
2023/10/05 06:30:54;;;;;;;13.07;4.65;;;13.40;90.40;;;;;;5094814;28;20370;-67
2023/10/05 06:33:20;;;;;;;16.85;4.75;;;13.50;90.30;;;;;;5094297;28;20027;-66
2023/10/05 06:35:46;;;;;;;14.88;4.50;;;13.60;90.30;;;;;;5095258;28;20073;-66
2023/10/05 06:38:12;;;;;;;14.35;4.35;;;13.70;90.00;;;;;;5094367;28;20100;-67
2023/10/05 06:40:38;;;;;;;12.77;4.55;;;13.70;89.60;;;;;;5095205;28;20456;-67
2023/10/05 06:43:05;;;;;;;17.15;4.05;;;13.90;89.20;;;;;;5094626;28;20110;-66
2023/10/05 06:45:31;;;;;;;13.10;3.67;;;13.90;88.60;;;;;;5095049;28;20031;-66
2023/10/05 06:47:57;;;;;;;7.28;3.70;;;14.00;88.00;;;;;;5094556;28;20043;-66
2023/10/05 06:50:23;;;;;;;8.95;4.22;;;14.10;88.10;;;;;;5094965;28;20024;-65
2023/10/05 06:52:49;;;;;;;10.82;4.20;;;14.20;87.60;;;;;;5094473;28;20027;-71
2023/10/05 06:55:23;;;;;;;7.20;4.00;;;14.40;86.80;;;;;;5094648;28;20020;-66
2023/10/05 06:57:51;;;;;;;12.15;3.80;;;14.50;85.40;;;;;;5094565;28;20101;-65
2023/10/05 07:00:22;;;;;;;11.32;4.25;;;14.70;85.10;;;;;;5094671;28;20024;-66
2023/10/05 07:02:58;;;;;;;8.57;3.90;;;14.90;84.30;;;;;;5094800;28;20023;-65
2023/10/05 07:05:27;;;;;;;9.15;4.00;;;15.00;83.20;;;;;;5094815;28;20355;-65
2023/10/05 07:07:53;;;;;;;12.13;4.40;;;15.10;82.30;;;;;;5094024;28;20522;-65
2023/10/05 07:10:20;;;;;;;11.50;4.15;;;15.10;81.80;;;;;;5094569;28;20110;-66
2023/10/05 07:12:46;;;;;;;13.32;4.38;;;15.20;81.60;;;;;;5094409;28;20372;-65
2023/10/05 07:15:21;;;;;;;9.50;4.00;;;15.30;81.60;;;;;;5094014;28;20077;-65
2023/10/05 07:17:51;;;;;;;13.98;4.38;;;15.50;80.80;;;;;;5094333;28;20081;-67
2023/10/05 07:20:18;;;;;;;9.32;4.03;;;15.60;80.60;;;;;;5093073;28;20031;-66
2023/10/05 07:22:46;;;;;;;7.53;4.60;;;15.70;80.20;;;;;;5094358;28;20437;-65
2023/10/05 07:25:12;;;;;;;12.18;4.15;;;15.90;80.00;;;;;;5093907;28;20305;-66
2023/10/05 07:27:38;;;;;;;8.57;4.32;;;16.10;78.80;;;;;;5094079;28;20067;-65
2023/10/05 07:30:06;;;;;;;9.40;4.22;;;16.30;78.10;;;;;;5093602;28;20412;-66
2023/10/05 07:32:36;;;;;;;8.23;3.83;;;16.50;76.90;;;;;;5094189;28;20020;-66
2023/10/05 07:35:02;;;;;;;10.48;3.88;;;16.60;75.60;;;;;;5093712;28;20024;-65
2023/10/05 07:37:29;;;;;;;8.13;4.22;;;16.80;75.10;;;;;;5094000;28;20028;-65
2023/10/05 07:39:55;;;;;;;15.32;4.43;;;17.00;74.60;;;;;;5093629;28;20016;-66
2023/10/05 07:42:21;;;;;;;8.77;3.95;;;17.20;74.00;;;;;;5094036;28;20097;-66
2023/10/05 07:44:46;;;;;;;11.95;4.30;;;17.50;73.00;;;;;;5093845;28;20444;-66
2023/10/05 07:47:13;;;;;;;14.40;4.40;;;17.70;71.80;;;;;;5093386;28;20433;-66
2023/10/05 07:49:41;;;;;;;13.40;4.50;;;18.00;71.60;;;;;;5092521;28;20024;-66
2023/10/05 07:52:09;;;;;;;9.20;4.07;;;18.20;70.40;;;;;;5093325;28;20024;-66
2023/10/05 07:54:35;;;;;;;13.77;3.90;;;18.40;69.40;;;;;;5093753;28;20020;-66
2023/10/05 07:57:02;;;;;;;10.23;4.35;;;18.70;68.50;;;;;;5093213;28;20035;-66
2023/10/05 07:59:28;;;;;;;10.80;4.18;;;18.90;66.80;;;;;;5092014;28;20036;-66
2023/10/05 08:01:55;;;;;;;7.90;3.90;;;19.20;67.30;;;;;;5091950;28;20028;-71
2023/10/05 08:04:22;;;;;;;10.73;3.90;;;19.30;65.50;;;;;;5093666;28;20023;-66
2023/10/05 08:06:48;;;;;;;16.17;4.63;;;19.50;65.10;;;;;;5093183;28;20058;-66
2023/10/05 08:09:20;;;;;;;10.85;4.20;;;19.50;64.00;;;;;;5092456;28;20080;-65
2023/10/05 08:11:50;;;;;;;15.13;4.43;;;19.50;64.10;;;;;;5093475;28;20028;-65
2023/10/05 08:14:20;;;;;;;15.85;4.40;;;19.50;64.90;;;;;;5088231;28;20046;-65
2023/10/05 08:16:46;;;;;;;11.95;3.70;;;19.50;64.30;;;;;;5092026;28;20445;-66
2023/10/05 08:19:12;;;;;;;14.00;4.10;;;19.50;63.90;;;;;;5092852;28;20107;-67
2023/10/05 08:21:38;;;;;;;11.77;4.28;;;19.40;64.30;;;;;;5093296;28;20062;-66
2023/10/05 08:24:04;;;;;;;12.73;4.28;;;19.40;63.80;;;;;;5092832;28;20055;-65
2023/10/05 08:26:30;;;;;;;11.73;4.07;;;19.50;64.00;;;;;;5093428;28;20032;-65
2023/10/05 08:28:56;;;;;;;12.38;4.03;;;19.60;64.10;;;;;;5093428;28;20099;-67
2023/10/05 08:31:25;;;;;;;9.38;3.35;;;19.60;64.20;;;;;;5093448;28;20020;-66
2023/10/05 08:33:54;;;;;;;12.90;4.15;;;19.70;63.80;;;;;;5093088;28;20020;-66
2023/10/05 08:36:20;;;;;;;8.50;4.05;;;19.70;63.80;;;;;;5092675;28;20381;-66
2023/10/05 08:38:48;;;;;;;11.70;4.18;;;19.80;63.70;;;;;;5093102;28;20086;-65
2023/10/05 08:41:27;;;;;;;12.57;3.92;;;20.00;64.10;;;;;;5090995;28;20016;-66
2023/10/05 08:43:54;;;;;;;10.43;3.67;;;20.20;64.00;;;;;;5093114;28;20024;-65
2023/10/05 08:46:21;;;;;;;8.00;3.60;;;20.30;63.10;;;;;;5092441;28;20028;-65
2023/10/05 08:48:47;;;;;;;18.60;4.20;;;20.40;62.60;;;;;;5092888;28;20243;-65
2023/10/05 08:51:14;;;;;;;9.27;3.78;;;20.50;61.60;;;;;;5092367;28;20035;-65
2023/10/05 08:53:48;;;;;;;11.57;3.90;;;20.60;61.70;;;;;;5092885;28;20457;-66
2023/10/05 08:56:15;;;;;;;8.20;3.47;;;20.60;60.80;;;;;;5092429;28;20325;-65
2023/10/05 08:58:45;;;;;;;8.45;3.90;;;20.70;60.90;;;;;;5092441;28;20415;-65
2023/10/05 09:01:30;;;;;;;5.57;2.40;;;20.80;60.40;;;;;;5091201;28;20020;-65
2023/10/05 09:04:01;;;;;;;4.80;2.28;;;20.90;59.60;;;;;;5091701;28;20475;-65
2023/10/05 09:06:28;;;;;;;6.45;2.42;;;21.00;56.80;;;;;;5091531;28;20135;-65
2023/10/05 09:11:31;;;;;;;5.93;2.28;;;21.10;57.40;;;;;;5092315;28;20382;-65
2023/10/05 09:14:13;;;;;;;9.40;2.20;;;21.10;57.40;;;;;;5092748;28;20114;-65
2023/10/05 09:16:47;;;;;;;4.85;2.63;;;21.10;56.00;;;;;;5092720;28;20055;-65
2023/10/05 09:19:26;;;;;;;5.47;2.10;;;21.30;56.30;;;;;;5092599;28;20103;-65
2023/10/05 09:21:58;;;;;;;10.73;2.90;;;21.50;54.50;;;;;;5095490;28;20541;-66
2023/10/05 09:24:25;;;;;;;4.93;2.30;;;21.60;55.70;;;;;;5096259;28;20059;-65
2023/10/05 09:26:55;;;;;;;5.07;2.10;;;21.70;54.60;;;;;;5096652;28;20359;-66
2023/10/05 09:29:23;;;;;;;8.23;2.30;;;21.90;54.40;;;;;;5096543;28;20066;-67
2023/10/05 09:31:54;;;;;;;4.57;2.28;;;22.00;52.80;;;;;;5096752;28;20351;-66
2023/10/05 09:34:39;;;;;;;8.65;1.90;;;21.80;53.00;;;;;;5096113;28;20023;-66
2023/10/05 09:37:07;;;;;;;5.25;2.20;;;22.00;52.60;;;;;;5081715;28;20435;-65
2023/10/05 09:39:44;;;;;;;5.93;2.13;;;22.10;52.80;;;;;;5096335;28;20024;-66
2023/10/05 09:42:17;;;;;;;3.20;2.25;;;22.20;52.70;;;;;;5096054;28;20023;-65
2023/10/05 09:45:13;;;;;;;7.05;1.95;;;22.20;51.60;;;;;;5096609;28;20031;-65
2023/10/05 09:47:40;;;;;;;7.10;2.15;;;22.10;51.50;;;;;;5079337;28;20126;-66
2023/10/05 09:50:13;;;;;;;6.03;2.55;;;22.00;52.00;;;;;;5095706;28;20042;-66
2023/10/05 09:52:46;;;;;;;8.82;3.05;;;21.90;51.50;;;;;;5096072;28;20049;-65
2023/10/05 09:55:12;;;;;;;6.38;2.08;;;21.60;52.10;;;;;;5094324;28;20056;-65
2023/10/05 09:57:46;;;;;;;4.65;2.03;;;21.30;52.70;;;;;;5095539;28;20040;-65
2023/10/05 10:00:27;;;;;;;6.05;2.80;;;21.40;53.20;;;;;;5095504;28;20063;-66
2023/10/05 10:02:57;;;;;;;;;;;21.50;53.90;;;;;;5095482;28;20073;-66
2023/10/05 10:05:33;;;;;;;8.00;2.33;;;21.50;53.60;;;;;;5089840;28;20283;-67
2023/10/05 10:08:21;;;;;;;6.47;2.20;;;21.80;53.80;;;;;;5075150;28;20273;-66
2023/10/05 10:11:07;;;;;;;8.52;2.40;;;22.00;53.40;;;;;;5074522;28;20016;-67
2023/10/05 10:13:40;;;;;;;6.18;2.22;;;22.10;52.90;;;;;;5075759;28;20032;-66
2023/10/05 10:16:17;;;;;;;6.30;2.42;;;22.30;52.30;;;;;;5075437;28;20032;-67
2023/10/05 10:18:46;;;;;;;11.23;3.47;;;22.40;52.40;;;;;;5075955;28;20100;-66
2023/10/05 10:21:32;;;;;;;15.32;3.60;;;22.50;53.50;;;;;;5075322;28;20024;-65
2023/10/05 10:24:06;;;;;;;11.40;3.55;;;22.60;53.80;;;;;;5075293;28;20020;-66
2023/10/05 10:26:59;;;;;;;7.93;3.13;;;22.60;54.30;;;;;;5075337;28;20457;-66
2023/10/05 10:29:58;;;;;;;10.63;3.72;;;22.70;53.60;;;;;;5074902;28;20031;-66
2023/10/05 10:32:31;;;;;;;9.00;3.47;;;22.70;53.70;;;;;;5073919;28;20512;-66
2023/10/05 10:37:39;;;;;;;7.88;2.90;;;22.80;52.50;;;;;;5075086;28;20534;-65
2023/10/05 10:40:13;;;;;;;10.98;3.55;;;23.00;53.20;;;;;;5074959;28;20418;-65
2023/10/05 10:42:49;;;;;;;6.72;2.97;;;23.00;52.40;;;;;;5074566;28;20358;-66
2023/10/05 10:45:16;;;;;;;4.88;2.50;;;23.10;52.50;;;;;;5074304;28;20082;-65
2023/10/05 10:47:47;;;;;;;6.82;2.70;;;23.20;50.50;;;;;;5081021;28;20032;-65
2023/10/05 10:50:22;;;;;;;8.35;2.60;;;23.10;50.40;;;;;;5094433;28;20337;-64
2023/10/05 10:52:50;;;;;;;6.72;2.70;;;23.20;50.50;;;;;;5094953;28;20027;-66
2023/10/05 10:55:20;;;;;;;10.07;3.10;;;22.80;50.10;;;;;;5094328;28;20027;-65
2023/10/05 10:57:53;;;;;;;6.28;2.67;;;22.70;52.10;;;;;;5094779;28;20052;-67
2023/10/05 11:03:12;;;;;;;6.78;2.38;;;22.80;51.30;;;;;;5094716;28;20032;-70
2023/10/05 11:05:47;;;;;;;8.90;2.85;;;22.90;51.00;;;;;;5094795;28;20077;-65
2023/10/05 11:08:15;;;;;;;15.20;3.42;;;22.80;51.40;;;;;;5094079;28;20052;-67
2023/10/05 11:10:41;;;;;;;10.82;3.22;;;23.00;51.50;;;;;;5094468;28;20525;-67
2023/10/05 11:13:20;;;;;;;11.98;4.03;;;23.10;51.30;;;;;;5094645;28;20020;-65
2023/10/05 11:15:57;;;;;;;5.82;2.40;;;23.00;50.90;;;;;;5094576;28;20047;-67
2023/10/05 11:18:30;;;;;;;6.47;2.38;;;23.10;49.70;;;;;;5094072;28;20106;-66
2023/10/05 11:21:14;;;;;;;5.93;2.25;;;22.80;49.90;;;;;;5094565;28;20107;-67
2023/10/05 11:23:55;;;;;;;6.20;2.00;;;22.70;49.90;;;;;;5094570;28;20055;-66
2023/10/05 11:26:33;;;;;;;5.25;2.33;;;22.70;50.40;;;;;;5094007;28;20102;-66
2023/10/05 11:29:07;;;;;;;5.55;2.53;;;22.60;50.40;;;;;;5094500;28;20065;-66
2023/10/05 11:31:34;;;;;;;4.28;1.95;;;22.50;50.00;;;;;;5094133;28;20107;-65
2023/10/05 11:34:10;;;;;;;4.78;2.33;;;22.50;49.90;;;;;;5094133;28;20107;-66
2023/10/05 11:36:42;;;;;;;4.50;2.00;;;22.40;50.10;;;;;;5094305;28;20073;-66
2023/10/05 11:39:21;;;;;;;4.63;2.33;;;22.30;50.40;;;;;;5094043;28;20325;-66
2023/10/05 11:41:46;;;;;;;3.38;1.92;;;22.30;50.60;;;;;;5093931;28;20028;-65
2023/10/05 11:44:15;;;;;;;5.40;2.10;;;22.30;51.60;;;;;;5092594;28;20023;-65
2023/10/05 11:46:46;;;;;;;4.47;2.08;;;22.50;51.50;;;;;;5093819;28;20133;-65
2023/10/05 11:49:13;;;;;;;3.45;1.92;;;22.60;50.80;;;;;;5093531;28;20031;-66
2023/10/05 11:51:42;;;;;;;5.07;1.95;;;22.70;50.80;;;;;;5093777;28;20516;-65
2023/10/05 11:54:09;;;;;;;6.30;2.10;;;22.60;50.40;;;;;;5093406;28;20547;-65
2023/10/05 11:56:34;;;;;;;7.35;2.55;;;22.60;51.10;;;;;;5093358;28;20085;-65
2023/10/05 11:59:00;;;;;;;4.32;2.35;;;22.60;50.60;;;;;;5093852;28;20460;-66
2023/10/05 12:01:32;;;;;;;4.50;2.45;;;22.60;50.30;;;;;;5093230;28;20024;-65
2023/10/05 12:03:58;;;;;;;4.15;2.03;;;22.70;50.90;;;;;;5093485;28;20111;-66
2023/10/05 12:06:25;;;;;;;5.28;2.42;;;22.80;50.50;;;;;;5092722;28;20095;-66
2023/10/05 12:09:00;;;;;;;5.55;2.10;;;22.70;50.30;;;;;;5080722;28;20078;-66
2023/10/05 12:11:29;;;;;;;6.25;2.63;;;22.70;50.90;;;;;;5072600;28;20031;-66
2023/10/05 12:13:58;;;;;;;4.78;1.83;;;22.70;51.70;;;;;;5073106;28;20403;-67
2023/10/05 12:16:32;;;;;;;5.90;2.42;;;22.80;50.40;;;;;;5092780;28;20069;-66
2023/10/05 12:19:13;;;;;;;7.53;2.15;;;22.90;50.40;;;;;;5093366;28;20024;-66
2023/10/05 12:21:48;;;;;;;4.55;2.20;;;22.90;50.50;;;;;;5093270;28;20016;-65
2023/10/05 12:24:13;;;;;;;6.90;2.10;;;22.60;50.80;;;;;;5092875;28;20031;-66
2023/10/05 12:26:42;;;;;;;3.38;1.88;;;22.60;50.80;;;;;;5093049;28;20024;-67
2023/10/05 12:29:14;;;;;;;4.03;2.10;;;22.50;51.20;;;;;;5093011;28;20427;-66
2023/10/05 12:31:47;;;;;;;5.47;1.98;;;22.40;51.30;;;;;;5093216;28;20119;-66
2023/10/05 12:34:16;;;;;;;5.47;2.33;;;22.40;51.20;;;;;;5092756;28;20483;-66
2023/10/05 12:36:51;;;;;;;5.53;2.53;;;22.30;52.00;;;;;;5092996;28;20028;-65
2023/10/05 12:39:26;;;;;;;6.05;2.75;;;22.30;52.20;;;;;;5092482;28;20024;-65
2023/10/05 12:41:54;;;;;;;4.35;2.17;;;22.30;51.80;;;;;;5093291;28;20028;-66
2023/10/05 12:44:19;;;;;;;3.47;1.95;;;22.30;52.10;;;;;;5092518;28;20019;-66
2023/10/05 12:46:47;;;;;;;5.10;2.42;;;22.30;51.60;;;;;;5092654;28;20024;-65
2023/10/05 12:49:16;;;;;;;4.75;2.20;;;22.30;52.00;;;;;;5092415;28;20020;-65
2023/10/05 12:51:44;;;;;;;5.03;2.13;;;22.30;52.00;;;;;;5092927;28;20349;-65
2023/10/05 12:54:18;;;;;;;3.83;2.05;;;22.30;51.90;;;;;;5087685;28;20448;-65
2023/10/05 12:56:50;;;;;;;9.90;2.38;;;22.30;52.40;;;;;;5072481;28;20056;-67
2023/10/05 12:59:19;;;;;;;4.85;2.35;;;22.30;52.20;;;;;;5072983;28;20044;-65
2023/10/05 13:01:46;;;;;;;5.32;2.05;;;22.30;52.60;;;;;;5073121;28;20467;-66
2023/10/05 13:04:16;;;;;;;5.28;2.20;;;22.20;52.00;;;;;;5072146;28;20046;-65
2023/10/05 13:06:44;;;;;;;5.75;2.58;;;22.20;52.20;;;;;;5073144;28;20045;-65
2023/10/05 13:09:11;;;;;;;4.00;2.38;;;22.30;52.30;;;;;;5072605;28;20138;-66
2023/10/05 13:11:44;;;;;;;5.32;2.58;;;22.30;51.50;;;;;;5072210;28;20033;-66
2023/10/05 13:14:11;;;;;;;5.70;3.10;;;22.20;51.40;;;;;;5072650;28;20025;-65
2023/10/05 13:16:36;;;;;;;7.55;2.83;;;22.10;51.40;;;;;;5072091;28;20028;-65
2023/10/05 13:19:06;;;;;;;12.35;2.70;;;22.20;51.20;;;;;;5072475;28;20111;-65
2023/10/05 13:21:32;;;;;;;6.30;2.70;;;22.20;51.10;;;;;;5071742;28;20067;-65
2023/10/05 13:23:57;;;;;;;3.65;2.30;;;22.00;50.20;;;;;;5072301;28;20088;-65
2023/10/05 13:26:26;;;;;;;6.88;2.20;;;22.00;51.20;;;;;;5071762;28;20473;-66
2023/10/05 13:28:53;;;;;;;6.95;2.28;;;22.00;51.40;;;;;;5072211;28;20032;-66
2023/10/05 13:31:20;;;;;;;11.63;2.63;;;21.90;51.80;;;;;;5072003;28;20103;-68
2023/10/05 13:33:49;;;;;;;8.68;2.50;;;21.90;52.00;;;;;;5072265;28;20016;-66
2023/10/05 13:36:15;;;;;;;6.97;3.08;;;21.80;52.20;;;;;;5070898;28;20024;-65
2023/10/05 13:38:43;;;;;;;5.43;2.58;;;21.80;52.10;;;;;;5071511;28;20100;-65